sensor_id;sensor_type;location;lat;lon;timestamp;pressure;altitude;pressure_sealevel;temperature;humidity
24422;BME280;12600;53.326;-6.298;2023-06-24T00:00:37;101398.06;;;21.67;72.28
24422;BME280;12600;53.326;-6.298;2023-06-24T00:03:27;101405.75;;;21.74;72.19
24422;BME280;12600;53.326;-6.298;2023-06-24T00:06:16;101409.81;;;21.80;72.11
24422;BME280;12600;53.326;-6.298;2023-06-24T00:09:06;101413.88;;;21.83;71.84
24422;BME280;12600;53.326;-6.298;2023-06-24T00:11:56;101413.63;;;21.72;71.96
24422;BME280;12600;53.326;-6.298;2023-06-24T00:14:49;101422.50;;;21.77;71.97
24422;BME280;12600;53.326;-6.298;2023-06-24T00:17:39;101415.19;;;21.69;72.15
24422;BME280;12600;53.326;-6.298;2023-06-24T00:20:30;101423.88;;;21.68;72.10
24422;BME280;12600;53.326;-6.298;2023-06-24T00:23:22;101438.66;;;21.72;72.05
24422;BME280;12600;53.326;-6.298;2023-06-24T00:26:13;101432.97;;;21.84;71.73
24422;BME280;12600;53.326;-6.298;2023-06-24T00:29:03;101435.97;;;21.75;71.87
24422;BME280;12600;53.326;-6.298;2023-06-24T00:31:53;101433.91;;;21.72;71.67
24422;BME280;12600;53.326;-6.298;2023-06-24T00:34:43;101445.91;;;21.76;71.55
24422;BME280;12600;53.326;-6.298;2023-06-24T00:37:37;101448.84;;;21.84;71.29
24422;BME280;12600;53.326;-6.298;2023-06-24T00:40:26;101445.50;;;21.74;71.32
24422;BME280;12600;53.326;-6.298;2023-06-24T00:43:16;101450.69;;;21.76;71.26
24422;BME280;12600;53.326;-6.298;2023-06-24T00:46:06;101453.75;;;21.71;71.39
24422;BME280;12600;53.326;-6.298;2023-06-24T00:48:57;101450.59;;;21.53;71.29
24422;BME280;12600;53.326;-6.298;2023-06-24T00:51:47;101449.78;;;21.72;71.32
24422;BME280;12600;53.326;-6.298;2023-06-24T00:54:38;101447.38;;;21.70;70.99
24422;BME280;12600;53.326;-6.298;2023-06-24T00:57:27;101448.56;;;21.69;71.06
24422;BME280;12600;53.326;-6.298;2023-06-24T01:00:18;101448.03;;;21.64;71.06
24422;BME280;12600;53.326;-6.298;2023-06-24T01:03:10;101450.91;;;21.67;71.30
24422;BME280;12600;53.326;-6.298;2023-06-24T01:06:03;101455.66;;;21.67;71.22
24422;BME280;12600;53.326;-6.298;2023-06-24T01:08:53;101454.41;;;21.64;71.37
24422;BME280;12600;53.326;-6.298;2023-06-24T01:11:44;101463.63;;;21.68;71.33
24422;BME280;12600;53.326;-6.298;2023-06-24T01:14:34;101459.16;;;21.64;71.22
24422;BME280;12600;53.326;-6.298;2023-06-24T01:17:28;101456.09;;;21.69;71.27
24422;BME280;12600;53.326;-6.298;2023-06-24T01:20:25;101441.16;;;21.58;70.98
24422;BME280;12600;53.326;-6.298;2023-06-24T01:24:00;101455.88;;;21.58;71.02
24422;BME280;12600;53.326;-6.298;2023-06-24T01:27:43;101462.16;;;21.55;71.43
24422;BME280;12600;53.326;-6.298;2023-06-24T01:31:26;101462.88;;;21.52;71.51
24422;BME280;12600;53.326;-6.298;2023-06-24T01:34:25;101449.84;;;21.56;70.97
24422;BME280;12600;53.326;-6.298;2023-06-24T01:37:21;101443.84;;;21.54;71.05
24422;BME280;12600;53.326;-6.298;2023-06-24T01:40:25;101435.78;;;21.49;71.05
24422;BME280;12600;53.326;-6.298;2023-06-24T01:43:16;101440.63;;;21.52;70.85
24422;BME280;12600;53.326;-6.298;2023-06-24T01:46:07;101451.91;;;21.59;70.96
24422;BME280;12600;53.326;-6.298;2023-06-24T01:49:04;101453.53;;;21.60;70.96
24422;BME280;12600;53.326;-6.298;2023-06-24T01:51:57;101445.91;;;21.57;70.72
24422;BME280;12600;53.326;-6.298;2023-06-24T01:54:48;101447.16;;;21.60;70.88
24422;BME280;12600;53.326;-6.298;2023-06-24T01:57:40;101433.16;;;21.56;70.84
24422;BME280;12600;53.326;-6.298;2023-06-24T02:00:30;101443.78;;;21.50;71.22
24422;BME280;12600;53.326;-6.298;2023-06-24T02:03:21;101435.34;;;21.47;71.27
24422;BME280;12600;53.326;-6.298;2023-06-24T02:06:14;101434.28;;;21.52;71.11
24422;BME280;12600;53.326;-6.298;2023-06-24T02:09:07;101428.34;;;21.53;70.86
24422;BME280;12600;53.326;-6.298;2023-06-24T02:11:58;101440.34;;;21.57;71.01
24422;BME280;12600;53.326;-6.298;2023-06-24T02:14:49;101435.88;;;21.53;71.34
24422;BME280;12600;53.326;-6.298;2023-06-24T02:17:40;101428.78;;;21.55;71.30
24422;BME280;12600;53.326;-6.298;2023-06-24T02:20:31;101425.41;;;21.46;71.54
24422;BME280;12600;53.326;-6.298;2023-06-24T02:23:23;101431.34;;;21.44;72.09
24422;BME280;12600;53.326;-6.298;2023-06-24T02:26:13;101427.44;;;21.49;72.02
24422;BME280;12600;53.326;-6.298;2023-06-24T02:29:04;101443.78;;;21.50;72.07
24422;BME280;12600;53.326;-6.298;2023-06-24T02:31:53;101441.56;;;21.40;73.05
24422;BME280;12600;53.326;-6.298;2023-06-24T02:34:43;101420.59;;;21.43;72.62
24422;BME280;12600;53.326;-6.298;2023-06-24T02:37:32;101432.72;;;21.54;72.42
24422;BME280;12600;53.326;-6.298;2023-06-24T02:40:23;101423.38;;;21.62;72.17
24422;BME280;12600;53.326;-6.298;2023-06-24T02:43:13;101429.03;;;21.66;71.78
24422;BME280;12600;53.326;-6.298;2023-06-24T02:46:04;101418.09;;;21.57;72.12
24422;BME280;12600;53.326;-6.298;2023-06-24T02:48:55;101430.91;;;21.62;72.15
24422;BME280;12600;53.326;-6.298;2023-06-24T02:51:46;101421.38;;;21.63;72.14
24422;BME280;12600;53.326;-6.298;2023-06-24T02:54:37;101427.38;;;21.65;72.05
24422;BME280;12600;53.326;-6.298;2023-06-24T02:57:48;101431.59;;;21.74;72.41
24422;BME280;12600;53.326;-6.298;2023-06-24T03:00:44;101429.22;;;21.76;72.24
24422;BME280;12600;53.326;-6.298;2023-06-24T03:03:48;101427.84;;;21.86;72.10
24422;BME280;12600;53.326;-6.298;2023-06-24T03:06:38;101427.53;;;21.91;71.89
24422;BME280;12600;53.326;-6.298;2023-06-24T03:09:34;101426.41;;;21.96;71.89
24422;BME280;12600;53.326;-6.298;2023-06-24T03:12:23;101424.09;;;21.98;71.77
24422;BME280;12600;53.326;-6.298;2023-06-24T03:15:15;101424.16;;;22.01;71.76
24422;BME280;12600;53.326;-6.298;2023-06-24T03:18:04;101435.72;;;22.03;71.96
24422;BME280;12600;53.326;-6.298;2023-06-24T03:20:54;101432.69;;;22.09;72.00
24422;BME280;12600;53.326;-6.298;2023-06-24T03:23:47;101424.88;;;22.18;71.51
24422;BME280;12600;53.326;-6.298;2023-06-24T03:26:39;101435.78;;;22.26;71.50
24422;BME280;12600;53.326;-6.298;2023-06-24T03:29:32;101432.72;;;22.31;71.19
24422;BME280;12600;53.326;-6.298;2023-06-24T03:32:31;101427.00;;;22.24;71.79
24422;BME280;12600;53.326;-6.298;2023-06-24T03:35:24;101426.19;;;22.24;71.82
24422;BME280;12600;53.326;-6.298;2023-06-24T03:38:20;101411.41;;;22.20;71.76
24422;BME280;12600;53.326;-6.298;2023-06-24T03:41:09;101427.00;;;22.24;71.49
24422;BME280;12600;53.326;-6.298;2023-06-24T03:43:59;101428.41;;;22.15;71.71
24422;BME280;12600;53.326;-6.298;2023-06-24T03:46:48;101437.91;;;22.14;71.80
24422;BME280;12600;53.326;-6.298;2023-06-24T03:49:39;101440.56;;;22.06;71.98
24422;BME280;12600;53.326;-6.298;2023-06-24T03:52:28;101429.59;;;21.94;72.60
24422;BME280;12600;53.326;-6.298;2023-06-24T03:55:18;101449.84;;;21.95;73.50
24422;BME280;12600;53.326;-6.298;2023-06-24T03:58:08;101449.72;;;22.07;73.06
24422;BME280;12600;53.326;-6.298;2023-06-24T04:00:59;101443.91;;;21.96;73.55
24422;BME280;12600;53.326;-6.298;2023-06-24T04:03:48;101442.53;;;22.06;73.02
24422;BME280;12600;53.326;-6.298;2023-06-24T04:06:39;101444.88;;;22.04;73.21
24422;BME280;12600;53.326;-6.298;2023-06-24T04:09:31;101452.78;;;22.02;73.47
24422;BME280;12600;53.326;-6.298;2023-06-24T04:12:20;101445.66;;;22.04;73.41
24422;BME280;12600;53.326;-6.298;2023-06-24T04:15:11;101444.97;;;22.08;73.48
24422;BME280;12600;53.326;-6.298;2023-06-24T04:18:00;101442.63;;;22.10;73.18
24422;BME280;12600;53.326;-6.298;2023-06-24T04:20:50;101447.03;;;22.11;73.53
24422;BME280;12600;53.326;-6.298;2023-06-24T04:23:41;101448.91;;;22.06;74.03
24422;BME280;12600;53.326;-6.298;2023-06-24T04:26:30;101443.81;;;22.09;74.26
24422;BME280;12600;53.326;-6.298;2023-06-24T04:29:20;101460.50;;;22.09;74.63
24422;BME280;12600;53.326;-6.298;2023-06-24T04:32:09;101460.69;;;22.19;74.16
24422;BME280;12600;53.326;-6.298;2023-06-24T04:34:59;101448.38;;;22.20;74.29
24422;BME280;12600;53.326;-6.298;2023-06-24T04:37:51;101462.88;;;22.29;73.92
24422;BME280;12600;53.326;-6.298;2023-06-24T04:40:41;101455.41;;;22.33;73.84
24422;BME280;12600;53.326;-6.298;2023-06-24T04:43:31;101462.06;;;22.29;73.73
24422;BME280;12600;53.326;-6.298;2023-06-24T04:46:20;101457.53;;;22.40;73.69
24422;BME280;12600;53.326;-6.298;2023-06-24T04:49:09;101467.72;;;22.32;74.07
24422;BME280;12600;53.326;-6.298;2023-06-24T04:52:00;101460.78;;;22.46;73.57
24422;BME280;12600;53.326;-6.298;2023-06-24T04:54:50;101468.28;;;22.42;73.74
24422;BME280;12600;53.326;-6.298;2023-06-24T04:57:41;101462.41;;;22.47;73.43
24422;BME280;12600;53.326;-6.298;2023-06-24T05:00:30;101479.13;;;22.47;73.51
24422;BME280;12600;53.326;-6.298;2023-06-24T05:03:19;101483.53;;;22.48;73.74
24422;BME280;12600;53.326;-6.298;2023-06-24T05:06:09;101475.22;;;22.51;73.55
24422;BME280;12600;53.326;-6.298;2023-06-24T05:08:58;101470.44;;;22.52;73.47
24422;BME280;12600;53.326;-6.298;2023-06-24T05:11:48;101467.78;;;22.59;73.15
24422;BME280;12600;53.326;-6.298;2023-06-24T05:14:38;101468.97;;;22.58;73.06
24422;BME280;12600;53.326;-6.298;2023-06-24T05:17:28;101467.88;;;22.63;72.89
24422;BME280;12600;53.326;-6.298;2023-06-24T05:20:17;101473.13;;;22.68;72.40
24422;BME280;12600;53.326;-6.298;2023-06-24T05:23:06;101468.34;;;22.68;71.82
24422;BME280;12600;53.326;-6.298;2023-06-24T05:25:56;101474.78;;;22.72;71.57
24422;BME280;12600;53.326;-6.298;2023-06-24T05:28:45;101483.19;;;22.76;71.11
24422;BME280;12600;53.326;-6.298;2023-06-24T05:31:36;101471.25;;;22.75;70.87
24422;BME280;12600;53.326;-6.298;2023-06-24T05:34:25;101480.91;;;22.81;70.39
24422;BME280;12600;53.326;-6.298;2023-06-24T05:37:14;101481.78;;;22.85;69.77
24422;BME280;12600;53.326;-6.298;2023-06-24T05:40:05;101479.34;;;22.84;69.46
24422;BME280;12600;53.326;-6.298;2023-06-24T05:42:55;101476.78;;;22.95;69.33
24422;BME280;12600;53.326;-6.298;2023-06-24T05:45:45;101479.25;;;23.00;69.00
24422;BME280;12600;53.326;-6.298;2023-06-24T05:48:36;101478.19;;;23.08;68.26
24422;BME280;12600;53.326;-6.298;2023-06-24T05:51:25;101468.97;;;23.04;67.51
24422;BME280;12600;53.326;-6.298;2023-06-24T05:54:14;101476.19;;;23.08;68.07
24422;BME280;12600;53.326;-6.298;2023-06-24T05:57:05;101482.66;;;23.12;67.80
24422;BME280;12600;53.326;-6.298;2023-06-24T05:59:54;101487.41;;;23.12;67.65
24422;BME280;12600;53.326;-6.298;2023-06-24T06:02:44;101475.09;;;23.13;67.17
24422;BME280;12600;53.326;-6.298;2023-06-24T06:05:35;101467.31;;;22.99;66.96
24422;BME280;12600;53.326;-6.298;2023-06-24T06:08:24;101472.50;;;23.01;66.77
24422;BME280;12600;53.326;-6.298;2023-06-24T06:11:14;101474.06;;;22.98;66.43
24422;BME280;12600;53.326;-6.298;2023-06-24T06:14:03;101477.53;;;22.92;66.48
24422;BME280;12600;53.326;-6.298;2023-06-24T06:16:53;101465.28;;;22.96;66.13
24422;BME280;12600;53.326;-6.298;2023-06-24T06:19:42;101469.41;;;23.06;66.40
24422;BME280;12600;53.326;-6.298;2023-06-24T06:22:39;101472.41;;;23.20;65.41
24422;BME280;12600;53.326;-6.298;2023-06-24T06:25:28;101462.22;;;23.31;65.18
24422;BME280;12600;53.326;-6.298;2023-06-24T06:28:17;101463.50;;;23.37;64.25
24422;BME280;12600;53.326;-6.298;2023-06-24T06:31:07;101471.16;;;23.44;64.35
24422;BME280;12600;53.326;-6.298;2023-06-24T06:33:56;101471.44;;;23.35;64.44
24422;BME280;12600;53.326;-6.298;2023-06-24T06:36:45;101473.03;;;23.36;64.07
24422;BME280;12600;53.326;-6.298;2023-06-24T06:39:36;101481.34;;;23.33;64.61
24422;BME280;12600;53.326;-6.298;2023-06-24T06:42:26;101478.72;;;23.43;63.97
24422;BME280;12600;53.326;-6.298;2023-06-24T06:45:15;101475.28;;;23.54;64.05
24422;BME280;12600;53.326;-6.298;2023-06-24T06:48:06;101472.16;;;23.59;63.27
24422;BME280;12600;53.326;-6.298;2023-06-24T06:50:56;101481.69;;;23.58;63.13
24422;BME280;12600;53.326;-6.298;2023-06-24T06:53:46;101469.38;;;23.59;63.20
24422;BME280;12600;53.326;-6.298;2023-06-24T06:56:37;101468.84;;;23.50;63.54
24422;BME280;12600;53.326;-6.298;2023-06-24T06:59:27;101476.38;;;23.45;63.41
24422;BME280;12600;53.326;-6.298;2023-06-24T07:02:17;101480.75;;;23.47;63.10
24422;BME280;12600;53.326;-6.298;2023-06-24T07:05:07;101476.75;;;23.44;63.00
24422;BME280;12600;53.326;-6.298;2023-06-24T07:07:57;101492.50;;;23.33;62.94
24422;BME280;12600;53.326;-6.298;2023-06-24T07:10:47;101475.19;;;23.47;62.20
24422;BME280;12600;53.326;-6.298;2023-06-24T07:13:38;101481.56;;;23.47;62.35
24422;BME280;12600;53.326;-6.298;2023-06-24T07:16:27;101494.31;;;23.48;61.58
24422;BME280;12600;53.326;-6.298;2023-06-24T07:19:16;101509.31;;;23.63;61.48
24422;BME280;12600;53.326;-6.298;2023-06-24T07:22:06;101494.16;;;23.64;60.44
24422;BME280;12600;53.326;-6.298;2023-06-24T07:24:55;101481.19;;;23.75;60.49
24422;BME280;12600;53.326;-6.298;2023-06-24T07:27:45;101488.41;;;23.80;59.92
24422;BME280;12600;53.326;-6.298;2023-06-24T07:30:35;101492.50;;;23.89;59.62
24422;BME280;12600;53.326;-6.298;2023-06-24T07:33:25;101513.53;;;24.13;59.52
24422;BME280;12600;53.326;-6.298;2023-06-24T07:36:15;101514.41;;;24.21;58.99
24422;BME280;12600;53.326;-6.298;2023-06-24T07:39:04;101512.63;;;24.36;58.19
24422;BME280;12600;53.326;-6.298;2023-06-24T07:41:53;101525.53;;;24.47;57.68
24422;BME280;12600;53.326;-6.298;2023-06-24T07:44:43;101525.28;;;24.63;56.82
24422;BME280;12600;53.326;-6.298;2023-06-24T07:47:34;101524.53;;;24.66;57.10
24422;BME280;12600;53.326;-6.298;2023-06-24T07:50:23;101531.00;;;24.77;56.65
24422;BME280;12600;53.326;-6.298;2023-06-24T07:53:13;101519.56;;;24.93;56.49
24422;BME280;12600;53.326;-6.298;2023-06-24T07:56:03;101539.50;;;24.88;55.58
24422;BME280;12600;53.326;-6.298;2023-06-24T07:58:52;101542.88;;;25.08;55.12
24422;BME280;12600;53.326;-6.298;2023-06-24T08:01:41;101551.59;;;25.47;55.59
24422;BME280;12600;53.326;-6.298;2023-06-24T08:04:32;101551.41;;;25.77;54.70
24422;BME280;12600;53.326;-6.298;2023-06-24T08:07:22;101553.56;;;26.09;53.21
24422;BME280;12600;53.326;-6.298;2023-06-24T08:10:11;101556.78;;;26.18;51.13
24422;BME280;12600;53.326;-6.298;2023-06-24T08:13:00;101556.53;;;26.48;51.67
24422;BME280;12600;53.326;-6.298;2023-06-24T08:15:50;101566.50;;;26.42;50.65
24422;BME280;12600;53.326;-6.298;2023-06-24T08:18:39;101565.66;;;26.38;50.80
24422;BME280;12600;53.326;-6.298;2023-06-24T08:21:30;101554.94;;;26.58;50.68
24422;BME280;12600;53.326;-6.298;2023-06-24T08:24:19;101558.50;;;26.44;49.82
24422;BME280;12600;53.326;-6.298;2023-06-24T08:27:08;101566.56;;;26.67;50.20
24422;BME280;12600;53.326;-6.298;2023-06-24T08:29:58;101571.41;;;26.81;49.93
24422;BME280;12600;53.326;-6.298;2023-06-24T08:32:47;101567.81;;;26.80;49.11
24422;BME280;12600;53.326;-6.298;2023-06-24T08:35:37;101565.00;;;27.01;49.72
24422;BME280;12600;53.326;-6.298;2023-06-24T08:38:27;101577.88;;;27.27;49.32
24422;BME280;12600;53.326;-6.298;2023-06-24T08:41:17;101581.06;;;27.47;48.92
24422;BME280;12600;53.326;-6.298;2023-06-24T08:44:06;101583.09;;;27.43;48.21
24422;BME280;12600;53.326;-6.298;2023-06-24T08:46:56;101576.28;;;27.37;47.33
24422;BME280;12600;53.326;-6.298;2023-06-24T08:49:48;101577.06;;;27.09;48.29
24422;BME280;12600;53.326;-6.298;2023-06-24T08:52:45;101569.41;;;26.81;48.88
24422;BME280;12600;53.326;-6.298;2023-06-24T08:55:41;101574.19;;;26.70;48.75
24422;BME280;12600;53.326;-6.298;2023-06-24T08:58:32;101573.00;;;26.82;48.38
24422;BME280;12600;53.326;-6.298;2023-06-24T09:01:21;101565.84;;;27.16;47.95
24422;BME280;12600;53.326;-6.298;2023-06-24T09:04:11;101561.81;;;27.60;47.56
24422;BME280;12600;53.326;-6.298;2023-06-24T09:07:00;101553.78;;;27.69;45.71
24422;BME280;12600;53.326;-6.298;2023-06-24T09:09:49;101562.59;;;27.71;45.60
24422;BME280;12600;53.326;-6.298;2023-06-24T09:12:40;101563.75;;;27.88;44.88
24422;BME280;12600;53.326;-6.298;2023-06-24T09:15:30;101562.41;;;28.21;45.01
24422;BME280;12600;53.326;-6.298;2023-06-24T09:18:20;101570.34;;;28.51;45.09
24422;BME280;12600;53.326;-6.298;2023-06-24T09:21:23;101549.50;;;28.41;44.77
24422;BME280;12600;53.326;-6.298;2023-06-24T09:24:14;101547.28;;;28.74;44.56
24422;BME280;12600;53.326;-6.298;2023-06-24T09:27:04;101543.94;;;28.31;44.02
24422;BME280;12600;53.326;-6.298;2023-06-24T09:29:55;101556.44;;;28.12;44.63
24422;BME280;12600;53.326;-6.298;2023-06-24T09:32:45;101558.16;;;27.84;45.47
24422;BME280;12600;53.326;-6.298;2023-06-24T09:35:35;101558.63;;;27.37;45.96
24422;BME280;12600;53.326;-6.298;2023-06-24T09:38:32;101551.00;;;27.37;47.02
24422;BME280;12600;53.326;-6.298;2023-06-24T09:41:24;101535.31;;;27.79;46.19
24422;BME280;12600;53.326;-6.298;2023-06-24T09:44:16;101536.84;;;28.01;44.54
24422;BME280;12600;53.326;-6.298;2023-06-24T09:47:09;101558.00;;;28.20;42.87
24422;BME280;12600;53.326;-6.298;2023-06-24T09:49:58;101552.78;;;28.26;42.95
24422;BME280;12600;53.326;-6.298;2023-06-24T09:52:51;101540.72;;;28.32;42.49
24422;BME280;12600;53.326;-6.298;2023-06-24T09:55:42;101535.09;;;28.29;42.89
24422;BME280;12600;53.326;-6.298;2023-06-24T09:58:36;101538.41;;;28.09;43.19
24422;BME280;12600;53.326;-6.298;2023-06-24T10:01:26;101549.63;;;28.06;43.04
24422;BME280;12600;53.326;-6.298;2023-06-24T10:04:18;101558.78;;;28.28;43.22
24422;BME280;12600;53.326;-6.298;2023-06-24T10:07:10;101565.16;;;28.42;42.79
24422;BME280;12600;53.326;-6.298;2023-06-24T10:10:02;101554.78;;;28.32;43.05
24422;BME280;12600;53.326;-6.298;2023-06-24T10:12:52;101569.31;;;28.09;43.36
24422;BME280;12600;53.326;-6.298;2023-06-24T10:15:41;101566.91;;;28.08;43.85
24422;BME280;12600;53.326;-6.298;2023-06-24T10:18:35;101570.44;;;28.23;43.89
24422;BME280;12600;53.326;-6.298;2023-06-24T10:21:45;101558.44;;;28.15;43.52
24422;BME280;12600;53.326;-6.298;2023-06-24T10:24:37;101551.28;;;28.00;44.25
24422;BME280;12600;53.326;-6.298;2023-06-24T10:27:30;101547.72;;;27.92;45.16
24422;BME280;12600;53.326;-6.298;2023-06-24T10:30:27;101542.53;;;27.76;44.68
24422;BME280;12600;53.326;-6.298;2023-06-24T10:33:17;101546.03;;;28.05;44.77
24422;BME280;12600;53.326;-6.298;2023-06-24T10:36:34;101543.13;;;28.27;43.95
24422;BME280;12600;53.326;-6.298;2023-06-24T10:39:51;101526.72;;;28.88;43.17
24422;BME280;12600;53.326;-6.298;2023-06-24T10:42:42;101532.19;;;29.50;43.09
24422;BME280;12600;53.326;-6.298;2023-06-24T10:45:35;101535.16;;;29.36;41.50
24422;BME280;12600;53.326;-6.298;2023-06-24T10:48:24;101530.47;;;29.19;41.31
24422;BME280;12600;53.326;-6.298;2023-06-24T10:51:14;101530.25;;;28.99;42.10
24422;BME280;12600;53.326;-6.298;2023-06-24T10:54:06;101536.03;;;28.74;42.34
24422;BME280;12600;53.326;-6.298;2023-06-24T10:56:55;101531.25;;;28.67;42.75
24422;BME280;12600;53.326;-6.298;2023-06-24T10:59:47;101531.72;;;28.59;42.90
24422;BME280;12600;53.326;-6.298;2023-06-24T11:02:36;101530.88;;;28.62;42.88
24422;BME280;12600;53.326;-6.298;2023-06-24T11:05:26;101539.03;;;28.46;42.33
24422;BME280;12600;53.326;-6.298;2023-06-24T11:08:15;101536.56;;;28.58;42.99
24422;BME280;12600;53.326;-6.298;2023-06-24T11:11:06;101535.00;;;28.47;43.13
24422;BME280;12600;53.326;-6.298;2023-06-24T11:13:56;101539.06;;;28.38;42.76
24422;BME280;12600;53.326;-6.298;2023-06-24T11:16:46;101537.13;;;28.32;42.63
24422;BME280;12600;53.326;-6.298;2023-06-24T11:19:36;101545.19;;;28.15;43.82
24422;BME280;12600;53.326;-6.298;2023-06-24T11:22:27;101536.78;;;28.12;43.50
24422;BME280;12600;53.326;-6.298;2023-06-24T11:25:19;101525.59;;;28.01;44.15
24422;BME280;12600;53.326;-6.298;2023-06-24T11:28:16;101518.34;;;28.07;43.95
24422;BME280;12600;53.326;-6.298;2023-06-24T11:31:09;101527.59;;;28.01;44.79
24422;BME280;12600;53.326;-6.298;2023-06-24T11:34:00;101508.44;;;27.74;44.48
24422;BME280;12600;53.326;-6.298;2023-06-24T11:36:50;101525.69;;;27.73;44.17
24422;BME280;12600;53.326;-6.298;2023-06-24T11:39:40;101519.94;;;28.05;44.13
24422;BME280;12600;53.326;-6.298;2023-06-24T11:42:29;101507.56;;;28.68;43.36
24422;BME280;12600;53.326;-6.298;2023-06-24T11:45:22;101505.22;;;29.12;42.06
24422;BME280;12600;53.326;-6.298;2023-06-24T11:48:11;101503.84;;;29.27;41.22
24422;BME280;12600;53.326;-6.298;2023-06-24T11:51:00;101500.31;;;29.19;40.95
24422;BME280;12600;53.326;-6.298;2023-06-24T11:53:49;101501.94;;;29.17;40.83
24422;BME280;12600;53.326;-6.298;2023-06-24T11:56:40;101490.09;;;29.36;40.62
24422;BME280;12600;53.326;-6.298;2023-06-24T11:59:29;101498.75;;;29.90;39.60
24422;BME280;12600;53.326;-6.298;2023-06-24T12:02:20;101505.78;;;30.67;39.33
24422;BME280;12600;53.326;-6.298;2023-06-24T12:05:09;101506.75;;;31.03;37.92
24422;BME280;12600;53.326;-6.298;2023-06-24T12:08:01;101498.47;;;31.59;37.18
24422;BME280;12600;53.326;-6.298;2023-06-24T12:10:51;101505.00;;;32.36;37.24
24422;BME280;12600;53.326;-6.298;2023-06-24T12:13:40;101492.81;;;32.71;35.75
24422;BME280;12600;53.326;-6.298;2023-06-24T12:16:30;101497.22;;;32.72;35.26
24422;BME280;12600;53.326;-6.298;2023-06-24T12:19:21;101496.19;;;32.66;35.45
24422;BME280;12600;53.326;-6.298;2023-06-24T12:22:10;101501.38;;;32.51;35.34
24422;BME280;12600;53.326;-6.298;2023-06-24T12:24:59;101501.03;;;32.49;35.89
24422;BME280;12600;53.326;-6.298;2023-06-24T12:27:49;101506.97;;;32.19;35.38
24422;BME280;12600;53.326;-6.298;2023-06-24T12:30:39;101496.41;;;31.63;36.32
24422;BME280;12600;53.326;-6.298;2023-06-24T12:33:28;101507.38;;;31.38;37.20
24422;BME280;12600;53.326;-6.298;2023-06-24T12:36:20;101500.56;;;31.12;37.18
24422;BME280;12600;53.326;-6.298;2023-06-24T12:39:10;101508.19;;;31.15;37.67
24422;BME280;12600;53.326;-6.298;2023-06-24T12:42:06;101498.97;;;31.11;38.60
24422;BME280;12600;53.326;-6.298;2023-06-24T12:44:55;101491.44;;;31.28;38.35
24422;BME280;12600;53.326;-6.298;2023-06-24T12:47:45;101497.59;;;31.42;38.21
24422;BME280;12600;53.326;-6.298;2023-06-24T12:50:34;101490.84;;;31.80;37.88
24422;BME280;12600;53.326;-6.298;2023-06-24T12:53:25;101483.28;;;32.49;37.62
24422;BME280;12600;53.326;-6.298;2023-06-24T12:56:14;101488.31;;;32.74;35.66
24422;BME280;12600;53.326;-6.298;2023-06-24T12:59:04;101476.81;;;32.81;35.30
24422;BME280;12600;53.326;-6.298;2023-06-24T13:01:53;101476.69;;;33.17;35.40
24422;BME280;12600;53.326;-6.298;2023-06-24T13:04:43;101473.72;;;33.53;34.87
24422;BME280;12600;53.326;-6.298;2023-06-24T13:07:32;101467.25;;;33.65;34.49
24422;BME280;12600;53.326;-6.298;2023-06-24T13:10:23;101460.00;;;33.64;34.40
24422;BME280;12600;53.326;-6.298;2023-06-24T13:13:12;101457.44;;;32.96;34.90
24422;BME280;12600;53.326;-6.298;2023-06-24T13:16:02;101461.84;;;32.64;35.21
24422;BME280;12600;53.326;-6.298;2023-06-24T13:18:51;101450.81;;;32.70;35.29
24422;BME280;12600;53.326;-6.298;2023-06-24T13:21:40;101455.41;;;32.96;35.32
24422;BME280;12600;53.326;-6.298;2023-06-24T13:24:30;101441.63;;;32.98;34.88
24422;BME280;12600;53.326;-6.298;2023-06-24T13:27:20;101450.09;;;33.27;34.65
24422;BME280;12600;53.326;-6.298;2023-06-24T13:30:11;101451.34;;;33.26;34.43
24422;BME280;12600;53.326;-6.298;2023-06-24T13:33:03;101442.94;;;32.94;34.77
24422;BME280;12600;53.326;-6.298;2023-06-24T13:35:53;101447.19;;;32.69;35.20
24422;BME280;12600;53.326;-6.298;2023-06-24T13:38:42;101451.78;;;32.47;35.39
24422;BME280;12600;53.326;-6.298;2023-06-24T13:41:32;101436.59;;;32.41;36.32
24422;BME280;12600;53.326;-6.298;2023-06-24T13:44:23;101438.47;;;32.11;36.26
24422;BME280;12600;53.326;-6.298;2023-06-24T13:47:13;101438.56;;;32.24;36.46
24422;BME280;12600;53.326;-6.298;2023-06-24T13:50:03;101424.69;;;32.29;36.53
24422;BME280;12600;53.326;-6.298;2023-06-24T13:52:52;101419.78;;;32.34;36.74
24422;BME280;12600;53.326;-6.298;2023-06-24T13:55:42;101415.00;;;32.63;36.78
24422;BME280;12600;53.326;-6.298;2023-06-24T13:58:31;101411.50;;;33.04;36.52
24422;BME280;12600;53.326;-6.298;2023-06-24T14:01:22;101416.72;;;33.06;35.59
24422;BME280;12600;53.326;-6.298;2023-06-24T14:04:12;101423.91;;;32.94;36.16
24422;BME280;12600;53.326;-6.298;2023-06-24T14:07:02;101413.94;;;32.90;36.39
24422;BME280;12600;53.326;-6.298;2023-06-24T14:09:52;101422.97;;;32.52;36.55
24422;BME280;12600;53.326;-6.298;2023-06-24T14:12:42;101428.56;;;32.03;37.82
24422;BME280;12600;53.326;-6.298;2023-06-24T14:15:31;101422.28;;;31.56;37.87
24422;BME280;12600;53.326;-6.298;2023-06-24T14:18:22;101418.66;;;31.35;38.65
24422;BME280;12600;53.326;-6.298;2023-06-24T14:21:11;101415.06;;;31.55;38.76
24422;BME280;12600;53.326;-6.298;2023-06-24T14:24:01;101406.09;;;31.96;38.62
24422;BME280;12600;53.326;-6.298;2023-06-24T14:27:04;101406.41;;;32.18;37.88
24422;BME280;12600;53.326;-6.298;2023-06-24T14:29:53;101399.22;;;32.13;37.31
24422;BME280;12600;53.326;-6.298;2023-06-24T14:32:42;101387.19;;;31.93;37.82
24422;BME280;12600;53.326;-6.298;2023-06-24T14:35:33;101395.53;;;31.60;38.49
24422;BME280;12600;53.326;-6.298;2023-06-24T14:38:22;101385.81;;;31.45;38.91
24422;BME280;12600;53.326;-6.298;2023-06-24T14:41:15;101376.38;;;31.52;38.98
24422;BME280;12600;53.326;-6.298;2023-06-24T14:44:05;101366.34;;;31.31;38.86